createdAt,value
2018-09-17T00:01:32.189Z,12.90
2018-09-17T00:06:35.760Z,12.58
2018-09-17T00:11:39.359Z,12.62
2018-09-17T00:16:42.904Z,12.69
2018-09-17T00:21:46.468Z,12.69
2018-09-17T00:26:50.110Z,12.63
2018-09-17T00:31:56.205Z,12.60
2018-09-17T00:36:59.905Z,11.94
2018-09-17T00:42:03.752Z,11.97
2018-09-17T00:47:07.347Z,12.11
2018-09-17T00:52:10.969Z,12.16
2018-09-17T00:57:14.599Z,12.15
2018-09-17T01:02:18.114Z,12.14
2018-09-17T01:07:21.629Z,12.11
2018-09-17T01:12:25.154Z,11.66
2018-09-17T01:17:28.698Z,11.84
2018-09-17T01:22:32.230Z,11.87
2018-09-17T01:27:35.805Z,11.76
2018-09-17T01:32:39.341Z,11.63
2018-09-17T01:37:42.841Z,11.73
2018-09-17T01:42:46.495Z,11.73
2018-09-17T01:47:50.107Z,11.55
2018-09-17T01:52:53.708Z,11.48
2018-09-17T01:57:57.393Z,11.27
2018-09-17T02:03:01.001Z,11.22
2018-09-17T02:08:04.810Z,11.36
2018-09-17T02:13:08.581Z,10.90
2018-09-17T02:18:12.187Z,10.84
2018-09-17T02:23:15.720Z,11.06
2018-09-17T02:28:19.252Z,11.14
2018-09-17T02:33:22.813Z,11.22
2018-09-17T02:38:26.457Z,10.75
2018-09-17T02:43:30.000Z,10.84
2018-09-17T02:48:33.577Z,10.82
2018-09-17T02:53:37.191Z,10.65
2018-09-17T02:58:40.713Z,10.89
2018-09-17T03:03:44.328Z,11.05
2018-09-17T03:08:48.011Z,11.20
2018-09-17T03:14:02.131Z,11.23
2018-09-17T03:19:05.747Z,11.24
2018-09-17T03:24:09.358Z,10.87
2018-09-17T03:29:13.007Z,10.91
2018-09-17T03:34:16.521Z,10.93
2018-09-17T03:39:20.084Z,10.93
2018-09-17T03:44:23.927Z,10.64
2018-09-17T03:49:27.498Z,10.64
2018-09-17T03:54:31.097Z,10.63
2018-09-17T03:59:34.635Z,10.55
2018-09-17T04:04:38.505Z,10.57
2018-09-17T04:09:44.217Z,10.30
2018-09-17T04:14:47.963Z,10.25
2018-09-17T04:19:59.435Z,9.87
2018-09-17T04:25:03.036Z,10.07
2018-09-17T04:30:07.002Z,10.11
2018-09-17T04:35:10.581Z,10.02
2018-09-17T04:40:14.226Z,10.17
2018-09-17T04:45:17.773Z,10.24
2018-09-17T04:50:21.386Z,10.44
2018-09-17T04:55:24.911Z,10.55
2018-09-17T05:00:35.695Z,10.64
2018-09-17T05:05:39.289Z,10.70
2018-09-17T05:10:42.816Z,10.57
2018-09-17T05:15:46.529Z,10.43
2018-09-17T05:20:50.058Z,10.30
2018-09-17T05:25:53.614Z,10.21
2018-09-17T05:30:57.241Z,10.01
2018-09-17T05:36:00.834Z,10.23
2018-09-17T05:41:04.842Z,10.18
2018-09-17T05:46:08.461Z,10.39
2018-09-17T05:51:12.730Z,10.48
2018-09-17T05:56:16.557Z,10.87
2018-09-17T06:01:20.681Z,11.09
2018-09-17T06:06:24.451Z,11.12
2018-09-17T06:11:28.272Z,11.19
2018-09-17T06:16:32.110Z,11.38
2018-09-17T06:21:35.889Z,11.55
2018-09-17T06:26:39.563Z,11.62
2018-09-17T06:31:46.970Z,11.63
2018-09-17T06:36:50.646Z,11.72
2018-09-17T06:41:54.488Z,11.90
2018-09-17T06:46:58.190Z,12.12
2018-09-17T06:52:01.789Z,12.55
2018-09-17T06:57:05.366Z,12.77
2018-09-17T07:02:09.089Z,12.63
2018-09-17T07:07:12.802Z,12.91
2018-09-17T07:12:16.433Z,12.96
2018-09-17T07:17:20.020Z,13.28
2018-09-17T07:22:23.706Z,13.55
2018-09-17T07:27:27.301Z,14.03
2018-09-17T07:32:30.977Z,14.58
2018-09-17T07:37:34.626Z,14.90
2018-09-17T07:42:38.320Z,15.32
2018-09-17T07:47:43.564Z,15.74
2018-09-17T07:52:47.298Z,16.06
2018-09-17T07:57:55.807Z,16.42
2018-09-17T08:03:00.184Z,16.90
2018-09-17T08:08:03.848Z,17.55
2018-09-17T08:13:07.541Z,17.81
2018-09-17T08:18:11.137Z,17.99
2018-09-17T08:23:15.029Z,17.95
2018-09-17T08:28:18.709Z,18.31
2018-09-17T08:33:22.384Z,18.63
2018-09-17T08:38:26.270Z,19.13
2018-09-17T08:43:30.099Z,19.52
2018-09-17T08:48:33.812Z,19.82
2018-09-17T08:53:37.693Z,19.68
2018-09-17T08:58:46.582Z,20.01
2018-09-17T09:03:57.743Z,20.12
2018-09-17T09:09:01.920Z,20.27
2018-09-17T09:14:10.557Z,20.22
2018-09-17T09:19:14.250Z,20.36
2018-09-17T09:24:18.546Z,20.50
2018-09-17T09:29:22.693Z,20.79
2018-09-17T09:34:26.439Z,20.91
2018-09-17T09:39:33.537Z,21.11
2018-09-17T09:44:43.163Z,21.69
2018-09-17T09:49:50.318Z,21.90
2018-09-17T09:55:03.201Z,21.90
2018-09-17T10:00:13.714Z,22.16
2018-09-17T10:05:17.623Z,22.30
2018-09-17T10:10:26.783Z,22.48
2018-09-17T10:15:35.537Z,22.62
2018-09-17T10:20:39.093Z,22.90
2018-09-17T10:25:42.697Z,23.06
2018-09-17T10:30:46.512Z,23.05
2018-09-17T10:35:50.051Z,23.07
2018-09-17T10:40:53.607Z,23.08
2018-09-17T10:45:57.172Z,23.28
2018-09-17T10:51:00.767Z,23.38
2018-09-17T10:56:04.372Z,23.50
2018-09-17T11:01:07.973Z,23.51
2018-09-17T11:06:11.796Z,23.46
2018-09-17T11:11:17.438Z,23.71
2018-09-17T11:16:21.040Z,23.71
2018-09-17T11:21:24.652Z,23.72
2018-09-17T11:26:28.427Z,23.78
2018-09-17T11:31:32.481Z,23.84
2018-09-17T11:36:42.407Z,23.79
2018-09-17T11:41:51.861Z,23.92
2018-09-17T11:46:55.409Z,23.93
2018-09-17T11:52:02.733Z,24.14
2018-09-17T11:57:06.399Z,24.46
2018-09-17T12:02:15.530Z,24.39
2018-09-17T12:07:24.333Z,24.54
2018-09-17T12:12:27.989Z,24.67
2018-09-17T12:17:31.784Z,24.56
2018-09-17T12:22:35.519Z,24.33
2018-09-17T12:27:41.318Z,24.61
2018-09-17T12:32:52.409Z,24.78
2018-09-17T12:37:56.050Z,25.06
2018-09-17T12:42:59.660Z,25.14
2018-09-17T12:48:03.340Z,25.29
2018-09-17T12:53:06.924Z,25.29
2018-09-17T12:58:10.453Z,25.32
2018-09-17T13:03:14.114Z,25.24
2018-09-17T13:08:17.963Z,25.16
2018-09-17T13:13:21.625Z,25.40
2018-09-17T13:18:26.317Z,25.38
2018-09-17T13:23:29.974Z,25.41
2018-09-17T13:28:33.515Z,25.53
2018-09-17T13:33:37.034Z,25.41
2018-09-17T13:38:40.576Z,25.49
2018-09-17T13:43:44.097Z,25.35
2018-09-17T13:48:47.803Z,25.46
2018-09-17T13:53:51.443Z,25.72
2018-09-17T13:58:54.965Z,25.82
2018-09-17T14:03:58.557Z,25.79
2018-09-17T14:09:02.215Z,25.77
2018-09-17T14:14:05.964Z,25.68
2018-09-17T14:19:09.553Z,26.04
2018-09-17T14:24:13.410Z,26.21
2018-09-17T14:29:16.988Z,25.94
2018-09-17T14:34:20.589Z,26.16
2018-09-17T14:39:24.300Z,26.39
2018-09-17T14:44:27.930Z,26.44
2018-09-17T14:49:39.185Z,26.51
2018-09-17T14:54:42.891Z,26.76
2018-09-17T14:59:46.426Z,26.87
2018-09-17T15:04:50.088Z,26.30
2018-09-17T15:09:53.766Z,26.40
2018-09-17T15:14:57.413Z,26.54
2018-09-17T15:20:00.989Z,26.36
2018-09-17T15:25:04.918Z,26.47
2018-09-17T15:30:13.367Z,26.38
2018-09-17T15:35:17.155Z,26.17
2018-09-17T15:40:20.973Z,26.02
2018-09-17T15:45:24.922Z,26.02
2018-09-17T15:50:28.534Z,25.77
2018-09-17T15:55:32.149Z,25.58
2018-09-17T16:00:35.792Z,25.60
2018-09-17T16:05:39.373Z,25.40
2018-09-17T16:10:43.000Z,25.14
2018-09-17T16:15:48.021Z,25.01
2018-09-17T16:20:51.659Z,24.83
2018-09-17T16:25:55.244Z,24.66
2018-09-17T16:30:58.781Z,24.51
2018-09-17T16:36:02.362Z,24.37
2018-09-17T16:41:06.301Z,24.24
2018-09-17T16:46:09.883Z,24.08
2018-09-17T16:51:13.557Z,23.86
2018-09-17T16:56:17.106Z,23.62
2018-09-17T17:01:20.766Z,23.38
2018-09-17T17:06:24.623Z,23.09
2018-09-17T17:11:28.236Z,22.82
2018-09-17T17:16:31.785Z,22.63
2018-09-17T17:21:36.273Z,22.38
2018-09-17T17:26:39.831Z,22.11
2018-09-17T17:31:43.454Z,21.82
2018-09-17T17:36:47.793Z,21.54
2018-09-17T17:41:52.406Z,21.33
2018-09-17T17:46:56.905Z,21.11
2018-09-17T17:52:01.616Z,20.76
2018-09-17T17:57:06.327Z,20.40
2018-09-17T18:02:10.037Z,20.30
2018-09-17T18:07:13.823Z,20.19
2018-09-17T18:12:17.394Z,20.03
2018-09-17T18:17:21.365Z,19.86
2018-09-17T18:22:26.216Z,19.66
2018-09-17T18:27:31.013Z,19.47
2018-09-17T18:32:35.883Z,19.37
2018-09-17T18:37:41.463Z,19.30
2018-09-17T18:42:46.146Z,19.08
2018-09-17T18:47:50.007Z,19.01
2018-09-17T18:52:54.027Z,18.87
2018-09-17T18:57:58.552Z,18.74
2018-09-17T19:03:02.243Z,18.61
2018-09-17T19:08:05.944Z,18.51
2018-09-17T19:13:09.734Z,18.47
2018-09-17T19:18:19.328Z,18.33
2018-09-17T19:23:29.189Z,18.10
2018-09-17T19:28:38.164Z,17.95
2018-09-17T19:33:41.815Z,17.93
2018-09-17T19:38:50.767Z,17.92
2018-09-17T19:43:54.458Z,17.83
2018-09-17T19:48:58.056Z,17.72
2018-09-17T19:54:01.762Z,17.61
2018-09-17T19:59:10.747Z,17.37
2018-09-17T20:04:20.451Z,17.28
2018-09-17T20:09:24.742Z,17.16
2018-09-17T20:14:29.428Z,17.10
2018-09-17T20:19:33.270Z,17.05
2018-09-17T20:24:37.666Z,16.73
2018-09-17T20:29:42.268Z,16.61
2018-09-17T20:34:47.073Z,16.47
2018-09-17T20:39:51.715Z,16.39
2018-09-17T20:44:56.258Z,16.38
2018-09-17T20:49:59.965Z,16.42
2018-09-17T20:55:03.588Z,16.08
2018-09-17T21:00:09.356Z,15.89
2018-09-17T21:05:13.655Z,15.84
2018-09-17T21:10:17.846Z,15.93
2018-09-17T21:15:21.608Z,15.98
2018-09-17T21:20:26.749Z,16.01
2018-09-17T21:25:30.473Z,16.05
2018-09-17T21:30:34.137Z,16.09
2018-09-17T21:35:37.739Z,16.09
2018-09-17T21:40:41.628Z,16.14
2018-09-17T21:45:45.292Z,16.14
2018-09-17T21:50:59.330Z,16.18
2018-09-17T21:56:02.985Z,16.13
2018-09-17T22:01:07.074Z,15.92
2018-09-17T22:06:15.004Z,15.93
2018-09-17T22:11:18.955Z,15.94
2018-09-17T22:16:22.716Z,15.95
2018-09-17T22:21:26.299Z,15.94
2018-09-17T22:26:29.920Z,15.86
2018-09-17T22:31:33.515Z,15.78
2018-09-17T22:36:37.092Z,15.72
2018-09-17T22:41:41.127Z,15.62
2018-09-17T22:46:44.653Z,15.54
2018-09-17T22:51:48.274Z,15.43
2018-09-17T22:56:51.794Z,15.36
2018-09-17T23:01:55.398Z,15.41
2018-09-17T23:06:58.918Z,15.38
2018-09-17T23:12:02.795Z,15.44
2018-09-17T23:17:06.431Z,15.46
2018-09-17T23:22:10.002Z,15.48
2018-09-17T23:27:14.004Z,15.52
2018-09-17T23:32:17.887Z,15.45
2018-09-17T23:37:21.661Z,15.48
2018-09-17T23:42:25.204Z,15.45
2018-09-17T23:47:30.237Z,15.33
2018-09-17T23:52:33.935Z,15.20
2018-09-17T23:57:37.508Z,15.08
